Gibbon Glade, PA (15440)

11:18 AM EDT on April 21, 2015 (GMT -0400)
Donna's Weather | | Change Station
CLOSE
Current Station
Personal Weather Station
Location: Markleysburg, PA
Elevation: 2306 ft
Nearby Weather Stations

Elev 2306 ft 39.77 °N, 79.50 °W | Updated 24 seconds ago

Partly Cloudy
Partly Cloudy
48.9 °F
Feels Like 46 °F
N
6.3
Wind Variable Wind from WSW
Gusts 6.3 mph

Today
High -- | Low -- °F
--% Chance of Precip.
Yesterday
High -- | Low -- °F
Precip. -- in
6:32 AM 8:02 PM
Waxing Crescent, 11% visible
Pressure 29.77 in
Visibility 10.0 miles
Clouds Scattered Clouds 3600 ft
Scattered Clouds 4200 ft
Mostly Cloudy 5000 ft
Windchill 46 °F
Dew Point 27 °F
Humidity 43%
Rainfall 0.04 in
Snow Depth Not available.
UV 4 out of 12
Pollen 10.90 out of 12
Air Quality Not available.
Flu Activity Sporadic
METAR K2G4 211455Z AUTO 27009G24KT 242V302 10SM SCT036 SCT042 BKN050 06/M01 A2977 RMK AO1

More Conditions Fewer Conditions

Pressure 29.77 in
Visibility 10.0 miles
Clouds Scattered Clouds 3600 ft
Scattered Clouds 4200 ft
Mostly Cloudy 5000 ft
Windchill 46 °F
Dew Point 27 °F
Humidity 43%
Rainfall 0.04 in
Snow Depth Not available.
UV 4 out of 12
Pollen 10.90 out of 12
Air Quality Not available.
Flu Activity Sporadic
METAR K2G4 211455Z AUTO 27009G24KT 242V302 10SM SCT036 SCT042 BKN050 06/M01 A2977 RMK AO1

More Conditions Fewer Conditions

10-Day Weather Forecast

Almanac

Astronomy

Apr. 21, 2015 Rise Set
Actual Time
Civil Twilight
Nautical Twilight
Astronomical Twilight
Moon
Length of Visible Light
Length of Day
Tomorrow will be .
, % of the Moon is Illuminated

Today's Extremes

State Highs State Lows

Community

WunderPhotos

Upload Photos

1,815,419 photos uploaded!

WunderBlogs® & News

Nearby

Air Quality

  Air Quality AQ Index Pollutant
Not available.

Snow Depth

Station Depth Elevation

Earthquake Activity

City Distance Mag. Time & Date
Minimum magnitude displayed is 2.5.

Coastal Water Temperatures

Place Temperature

Stations

Nearby Weather Stations

Station Location Temp. Windchill Dew Point Humidity Wind Precip. Elev Updated Type